»·PEaware :: UAL2422 KPDX-KSFO

UAL2422 :: KPDX-KSFO

FLIGHT INFORMATION

Flight Status: Arrived
Operator:
United Airlines
More flights by this operator :: More flights under this callsign
Pilot: Alfredo R. (12181)
Aircraft: BOEING 737-800
(B738)
More flights by this aircraft type
Origin: KPDX Portland Intl
United States
Destination: KSFO San Francisco Intl
United States
More flights between these airports :: More routes between these airports
Route: +MINNE5 EASON ENVIE MLBEC BDEGA3
File this flight plan on PilotEdge
Remarks:
Altitude:
(Current/Filed)
37,000ft
Speed:
(Current/Filed)
425kts
Departed: 05-Jan-19 05:43 PM
Arrived: 05-Jan-19 07:23 PM
Distance/Time
Traveled:
478nm/1:39
Distance/Time
To Go:
Arrived

Flight Plot

Page will automatically refresh every two minutes.

Flight plan parsing failed; only flown route is shown


Map Options




Map Legend


Flown Route
Filed Route
Departure Airport
Arrival Airport
Navaid (VOR, NDB)
Fix

Horizontal Profiles

Position Reports

Time Latitude Longitude Heading Altitude Ground
Speed
05-Jan-19 17:16 45.590061 -122.591034 209 24ft 0kts
05-Jan-19 17:17 45.590061 -122.591034 209 24ft 0kts
05-Jan-19 17:18 45.590061 -122.591034 209 24ft 0kts
05-Jan-19 17:19 45.590061 -122.591034 209 24ft 0kts
05-Jan-19 17:20 45.590061 -122.591034 209 24ft 0kts
05-Jan-19 17:21 45.590061 -122.591034 209 24ft 0kts
05-Jan-19 17:22 45.590061 -122.591034 209 24ft 0kts
05-Jan-19 17:23 45.590061 -122.591034 209 24ft 0kts
05-Jan-19 17:24 45.590061 -122.591034 209 24ft 0kts
05-Jan-19 17:25 45.590061 -122.591034 209 24ft 0kts
05-Jan-19 17:26 45.590072 -122.591031 209 24ft 1kts
05-Jan-19 17:27 45.590566 -122.590627 193 24ft 2kts
05-Jan-19 17:28 45.590920 -122.591048 120 24ft 0kts
05-Jan-19 17:29 45.590416 -122.589739 118 24ft 0kts
05-Jan-19 17:30 45.590416 -122.589739 118 24ft 0kts
05-Jan-19 17:31 45.590416 -122.589739 118 24ft 0kts
05-Jan-19 17:32 45.590416 -122.589739 118 24ft 0kts
05-Jan-19 17:33 45.590133 -122.588934 128 24ft 5kts
05-Jan-19 17:34 45.589557 -122.586542 82 24ft 9kts
05-Jan-19 17:35 45.588674 -122.583108 118 24ft 12kts
05-Jan-19 17:36 45.586738 -122.578157 118 24ft 17kts
05-Jan-19 17:37 45.584686 -122.572887 119 24ft 16kts
05-Jan-19 17:38 45.582782 -122.568002 117 24ft 7kts
05-Jan-19 17:39 45.582746 -122.567401 64 24ft 0kts
05-Jan-19 17:40 45.582929 -122.567073 38 24ft 5kts
05-Jan-19 17:41 45.584028 -122.567991 298 24ft 0kts
05-Jan-19 17:42 45.590578 -122.584871 298 24ft 144kts
05-Jan-19 17:43 45.610057 -122.642272 286 2120ft 170kts
05-Jan-19 17:44 45.631003 -122.705107 291 3985ft 213kts
05-Jan-19 17:45 45.663854 -122.788887 282 5886ft 266kts
05-Jan-19 17:46 45.656530 -122.885110 229 8614ft 247kts
05-Jan-19 17:47 45.596648 -122.924629 186 10500ft 276kts
05-Jan-19 17:48 45.518140 -122.934158 185 12853ft 297kts
05-Jan-19 17:49 45.455727 -122.941507 185 14791ft 308kts
05-Jan-19 17:50 45.374320 -122.951034 184 17191ft 319kts
05-Jan-19 17:51 45.287550 -122.961128 184 19308ft 329kts
05-Jan-19 17:52 45.196694 -122.980287 198 21288ft 340kts
05-Jan-19 17:53 45.107588 -123.026342 198 23147ft 349kts
05-Jan-19 17:54 45.014891 -123.073200 198 24691ft 361kts
05-Jan-19 17:55 44.919792 -123.120880 198 26306ft 367kts
05-Jan-19 17:56 44.822097 -123.169268 198 27736ft 376kts
05-Jan-19 17:57 44.723004 -123.218658 198 28969ft 387kts
05-Jan-19 17:58 44.621210 -123.269067 199 30396ft 390kts
05-Jan-19 17:59 44.520019 -123.318764 195 31862ft 388kts
05-Jan-19 18:00 44.413154 -123.325445 181 33265ft 386kts
05-Jan-19 18:01 44.306471 -123.321229 182 34503ft 384kts
05-Jan-19 18:02 44.200791 -123.317276 182 35608ft 381kts
05-Jan-19 18:03 44.095198 -123.312896 182 36325ft 386kts
05-Jan-19 18:04 43.986813 -123.308552 182 36322ft 393kts
05-Jan-19 18:05 43.878414 -123.304141 182 36334ft 393kts
05-Jan-19 18:06 43.772159 -123.300090 182 36400ft 394kts
05-Jan-19 18:07 43.663886 -123.295861 183 37278ft 393kts
05-Jan-19 18:08 43.555873 -123.291586 183 38004ft 392kts
05-Jan-19 18:09 43.448378 -123.287377 183 38182ft 392kts
05-Jan-19 18:10 43.340380 -123.283313 183 38126ft 398kts
05-Jan-19 18:11 43.230448 -123.278870 183 38290ft 399kts
05-Jan-19 18:12 43.122548 -123.274746 183 38245ft 388kts
05-Jan-19 18:13 43.015740 -123.270643 183 38249ft 386kts
05-Jan-19 18:14 42.908638 -123.266663 183 38321ft 384kts
05-Jan-19 18:15 42.802218 -123.262559 184 38324ft 382kts
05-Jan-19 18:17 42.697112 -123.258527 183 38328ft 382kts
05-Jan-19 18:18 42.591060 -123.254457 183 38326ft 382kts
05-Jan-19 18:19 42.485083 -123.250521 183 38395ft 387kts
05-Jan-19 18:20 42.380649 -123.246618 184 38393ft 379kts
05-Jan-19 18:21 42.275455 -123.242759 184 38395ft 379kts
05-Jan-19 18:22 42.170324 -123.238854 184 38367ft 381kts
05-Jan-19 18:23 42.064173 -123.234972 184 38364ft 382kts
05-Jan-19 18:24 41.958767 -123.231162 184 38371ft 382kts
05-Jan-19 18:25 41.853443 -123.227329 184 38370ft 383kts
05-Jan-19 18:26 41.747575 -123.223600 184 38483ft 381kts
05-Jan-19 18:27 41.642466 -123.219614 184 38480ft 381kts
05-Jan-19 18:28 41.536716 -123.215916 184 38478ft 380kts
05-Jan-19 18:29 41.430824 -123.212274 184 38483ft 380kts
05-Jan-19 18:30 41.325680 -123.208541 183 38567ft 381kts
05-Jan-19 18:31 41.219743 -123.196852 182 38564ft 379kts
05-Jan-19 18:32 41.115232 -123.185899 182 38567ft 379kts
05-Jan-19 18:33 41.010561 -123.175010 182 38563ft 379kts
05-Jan-19 18:34 40.905610 -123.164287 182 38575ft 379kts
05-Jan-19 18:34 40.819168 -123.155142 182 38584ft 379kts
05-Jan-19 18:36 40.697251 -123.142364 182 38581ft 382kts
05-Jan-19 18:36 40.609271 -123.133329 182 38581ft 381kts
05-Jan-19 18:37 40.504506 -123.122632 182 38587ft 380kts
05-Jan-19 18:39 40.381915 -123.110062 182 38576ft 380kts
05-Jan-19 18:39 40.294418 -123.101097 182 38579ft 382kts
05-Jan-19 18:40 40.189625 -123.090402 182 38581ft 380kts
05-Jan-19 18:42 40.066973 -123.077922 182 38593ft 380kts
05-Jan-19 18:42 39.979674 -123.069086 182 38593ft 380kts
05-Jan-19 18:43 39.875184 -123.058659 182 38612ft 381kts
05-Jan-19 18:44 39.769594 -123.047959 182 38697ft 382kts
05-Jan-19 18:45 39.664306 -123.037338 182 38697ft 381kts
05-Jan-19 18:46 39.559202 -123.026813 182 38689ft 380kts
05-Jan-19 18:47 39.455353 -123.016510 182 38690ft 373kts
05-Jan-19 18:48 39.354258 -123.006365 182 38616ft 376kts
05-Jan-19 18:49 39.254287 -122.996301 182 37027ft 356kts
05-Jan-19 18:50 39.155608 -122.986386 182 35423ft 359kts
05-Jan-19 18:51 39.056084 -122.976784 181 33809ft 361kts
05-Jan-19 18:52 38.956905 -122.966891 182 32281ft 360kts
05-Jan-19 18:53 38.857355 -122.954466 174 30783ft 367kts
05-Jan-19 18:54 38.759124 -122.924914 173 29204ft 373kts
05-Jan-19 18:55 38.659401 -122.895335 172 27460ft 372kts
05-Jan-19 18:56 38.560002 -122.865971 171 25698ft 369kts
05-Jan-19 18:57 38.462506 -122.837264 170 23963ft 366kts
05-Jan-19 18:58 38.366220 -122.808843 170 22204ft 358kts
05-Jan-19 18:59 38.271462 -122.781010 171 20475ft 347kts
05-Jan-19 19:00 38.181049 -122.754640 171 18915ft 342kts
05-Jan-19 19:01 38.091341 -122.728619 172 17408ft 339kts
05-Jan-19 19:02 38.003745 -122.703245 172 15988ft 337kts
05-Jan-19 19:03 37.919710 -122.678853 170 14633ft 316kts
05-Jan-19 19:04 37.855964 -122.627728 145 13450ft 309kts
05-Jan-19 19:05 37.795636 -122.563391 145 12550ft 304kts
05-Jan-19 19:06 37.735630 -122.499838 145 11404ft 302kts
05-Jan-19 19:07 37.672705 -122.432922 144 10757ft 298kts
05-Jan-19 19:08 37.610884 -122.367391 148 9834ft 292kts
05-Jan-19 19:09 37.548783 -122.318079 153 8927ft 282kts
05-Jan-19 19:10 37.490391 -122.271434 153 8005ft 271kts
05-Jan-19 19:11 37.451652 -122.206483 113 7152ft 266kts
05-Jan-19 19:12 37.430487 -122.124187 113 6284ft 248kts
05-Jan-19 19:13 37.437373 -122.057019 42 5569ft 247kts
05-Jan-19 19:14 37.493093 -122.038299 327 4764ft 199kts
05-Jan-19 19:15 37.508169 -122.091391 276 3879ft 166kts
05-Jan-19 19:16 37.522256 -122.145603 295 3049ft 160kts
05-Jan-19 19:17 37.541522 -122.191697 295 2460ft 150kts
05-Jan-19 19:18 37.561177 -122.238317 294 1859ft 153kts
05-Jan-19 19:19 37.579755 -122.282378 293 1234ft 138kts
05-Jan-19 19:20 37.597505 -122.324584 294 638ft 138kts
05-Jan-19 19:21 37.615454 -122.367287 294 11ft 143kts
05-Jan-19 19:22 37.622747 -122.385486 243 28ft 16kts
05-Jan-19 19:23 37.622133 -122.387935 299 30ft 9kts
05-Jan-19 19:24 37.621868 -122.391298 210 30ft 10kts
05-Jan-19 19:25 37.619849 -122.390843 119 30ft 11kts
05-Jan-19 19:26 37.620141 -122.389422 27 30ft 0kts
05-Jan-19 19:27 37.620172 -122.389401 27 30ft 0kts
05-Jan-19 19:28 37.620172 -122.389401 27 30ft 0kts
05-Jan-19 19:29 37.620172 -122.389401 27 30ft 0kts

Navigation Log

Ident Type
Flight plan parsing failed, navigation log unavailable